Time;durP1;ratioP1;P1;durP2;ratioP2;P2;SDS_P1;SDS_P2;PMS_P1;PMS_P2;Temp;Humidity;BMP_temperature;BMP_pressure;BME280_temperature;BME280_humidity;BME280_pressure;Samples;Min_cycle;Max_cycle;Signal;HPM_P1;HPM_P2
2021/03/15 00:00:16;;;;;;;1.73;1.20;;;7.60;99.90;;;;;;5065009;28;20442;-68
2021/03/15 00:02:43;;;;;;;3.50;1.40;;;7.70;99.90;;;;;;5064004;28;20518;-67
2021/03/15 00:05:12;;;;;;;3.75;1.25;;;7.70;99.90;;;;;;5065382;28;20464;-67
2021/03/15 00:07:41;;;;;;;2.13;1.10;;;7.60;99.90;;;;;;5065724;28;20051;-67
2021/03/15 00:10:09;;;;;;;2.10;0.95;;;7.70;99.90;;;;;;5065109;28;20032;-68
2021/03/15 00:12:36;;;;;;;3.03;1.10;;;7.80;99.90;;;;;;5066198;28;20025;-67
2021/03/15 00:15:05;;;;;;;1.58;0.90;;;7.80;99.90;;;;;;5066732;28;20286;-67
2021/03/15 00:17:33;;;;;;;3.38;1.13;;;7.80;99.90;;;;;;5066487;28;20032;-67
2021/03/15 00:20:01;;;;;;;1.73;0.90;;;7.90;99.90;;;;;;5066590;28;20040;-67
2021/03/15 00:22:27;;;;;;;3.40;1.17;;;7.70;99.90;;;;;;5066248;28;20031;-67
2021/03/15 00:24:54;;;;;;;3.45;1.40;;;7.80;99.90;;;;;;5066605;28;20487;-67
2021/03/15 00:27:20;;;;;;;2.05;1.40;;;7.80;99.90;;;;;;5064902;28;20028;-67
2021/03/15 00:29:45;;;;;;;4.43;1.30;;;7.80;99.90;;;;;;5066312;28;20024;-67
2021/03/15 00:32:12;;;;;;;3.65;1.10;;;7.60;99.90;;;;;;5066687;28;20031;-68
2021/03/15 00:34:40;;;;;;;1.83;1.02;;;7.60;99.90;;;;;;5067190;28;20025;-68
2021/03/15 00:37:09;;;;;;;2.45;1.15;;;7.50;99.90;;;;;;5066322;28;20056;-68
2021/03/15 00:39:35;;;;;;;2.88;1.10;;;7.70;99.90;;;;;;5066068;28;20032;-68
2021/03/15 00:42:02;;;;;;;4.35;1.98;;;7.60;99.90;;;;;;5066190;28;20043;-68
2021/03/15 00:44:29;;;;;;;5.32;1.85;;;7.70;99.90;;;;;;5065035;28;20107;-67
2021/03/15 00:46:56;;;;;;;6.10;2.30;;;7.50;99.90;;;;;;5066369;28;20027;-67
2021/03/15 00:49:22;;;;;;;6.05;2.20;;;7.70;99.90;;;;;;5065380;28;20028;-67
2021/03/15 00:51:48;;;;;;;6.15;2.25;;;7.70;99.90;;;;;;5065752;28;20109;-68
2021/03/15 00:54:14;;;;;;;6.45;2.17;;;7.70;99.90;;;;;;5064501;28;20081;-67
2021/03/15 00:56:40;;;;;;;4.60;2.38;;;7.60;99.90;;;;;;5066712;28;20024;-68
2021/03/15 00:59:06;;;;;;;3.15;1.73;;;7.60;99.90;;;;;;5065919;28;20035;-67
2021/03/15 01:01:33;;;;;;;6.20;2.58;;;7.80;99.90;;;;;;5065851;28;20284;-68
2021/03/15 01:03:59;;;;;;;6.63;3.40;;;7.80;99.90;;;;;;5065633;28;20029;-67
2021/03/15 01:06:26;;;;;;;10.95;4.55;;;8.00;99.90;;;;;;5065358;28;20142;-67
2021/03/15 01:08:52;;;;;;;10.75;5.07;;;8.10;99.90;;;;;;5065371;28;20028;-67
2021/03/15 01:11:18;;;;;;;8.48;4.05;;;8.00;99.90;;;;;;5065387;28;20031;-67
2021/03/15 01:13:44;;;;;;;8.57;3.95;;;8.00;99.90;;;;;;5065633;28;20021;-67
2021/03/15 01:16:10;;;;;;;6.38;3.38;;;8.00;99.90;;;;;;5066417;28;20017;-67
2021/03/15 01:18:37;;;;;;;4.63;2.65;;;7.90;99.90;;;;;;5065497;28;20028;-67
2021/03/15 01:21:03;;;;;;;3.80;1.83;;;7.80;99.90;;;;;;5065381;28;20025;-67
2021/03/15 01:23:30;;;;;;;3.08;1.75;;;7.80;99.90;;;;;;5065285;28;20028;-68
2021/03/15 01:25:56;;;;;;;6.07;1.60;;;7.70;99.90;;;;;;5065583;28;20060;-68
2021/03/15 01:28:22;;;;;;;3.35;1.58;;;7.60;99.90;;;;;;5064892;28;20036;-68
2021/03/15 01:30:48;;;;;;;2.70;1.38;;;7.50;99.90;;;;;;5065294;28;20086;-68
2021/03/15 01:33:15;;;;;;;2.25;1.25;;;7.30;99.90;;;;;;5064820;28;20020;-68
2021/03/15 01:35:42;;;;;;;2.03;1.00;;;7.00;99.90;;;;;;5065720;28;20024;-69
2021/03/15 01:38:09;;;;;;;1.40;0.90;;;6.90;99.90;;;;;;5065578;28;20048;-69
2021/03/15 01:40:38;;;;;;;0.90;0.70;;;6.80;99.90;;;;;;5065383;28;20028;-68
2021/03/15 01:43:05;;;;;;;1.00;0.70;;;6.80;99.90;;;;;;5065060;28;20073;-68
2021/03/15 01:45:33;;;;;;;1.02;0.80;;;6.70;99.90;;;;;;5064893;28;20071;-68
2021/03/15 01:48:00;;;;;;;1.48;0.73;;;6.70;99.90;;;;;;5064877;28;20035;-68
2021/03/15 01:50:29;;;;;;;1.95;1.00;;;6.70;99.90;;;;;;5064895;28;20020;-68
2021/03/15 01:52:58;;;;;;;2.65;0.95;;;6.80;99.90;;;;;;5065180;28;20021;-68
2021/03/15 01:55:27;;;;;;;1.23;0.80;;;6.90;99.90;;;;;;5064572;28;20044;-68
2021/03/15 01:57:55;;;;;;;1.20;0.70;;;7.00;99.90;;;;;;5064660;28;20111;-68
2021/03/15 02:00:24;;;;;;;0.70;0.68;;;7.00;99.90;;;;;;5064246;28;20436;-69
2021/03/15 02:03:04;;;;;;;1.45;0.90;;;7.10;99.90;;;;;;5064503;28;20036;-69
2021/03/15 02:05:33;;;;;;;1.35;0.95;;;7.00;99.90;;;;;;5064317;28;20021;-69
2021/03/15 02:07:59;;;;;;;1.55;0.68;;;6.70;99.90;;;;;;5062935;28;20772;-68
2021/03/15 02:10:25;;;;;;;1.20;0.63;;;6.70;99.90;;;;;;5064204;28;20017;-68
2021/03/15 02:13:09;;;;;;;1.63;0.98;;;6.80;99.90;;;;;;5064631;28;20028;-69
2021/03/15 02:16:11;;;;;;;1.37;1.00;;;6.70;99.90;;;;;;5064706;28;20044;-68
2021/03/15 02:18:51;;;;;;;1.48;0.90;;;7.10;99.90;;;;;;5064011;28;20259;-68
2021/03/15 02:21:38;;;;;;;1.63;0.73;;;6.90;99.90;;;;;;5064139;28;20271;-68
2021/03/15 02:24:35;;;;;;;1.40;0.90;;;6.60;99.90;;;;;;5064501;28;20021;-68
2021/03/15 02:27:29;;;;;;;2.00;1.02;;;6.80;99.90;;;;;;5064278;28;20116;-67
2021/03/15 02:30:20;;;;;;;2.25;1.30;;;7.00;99.90;;;;;;5064379;28;20036;-66
2021/03/15 02:33:18;;;;;;;2.78;1.40;;;7.00;99.90;;;;;;5064031;28;20028;-66
2021/03/15 02:35:46;;;;;;;1.20;1.00;;;7.10;99.90;;;;;;5064501;28;20432;-66
2021/03/15 02:38:16;;;;;;;1.95;1.10;;;7.10;99.90;;;;;;5063910;28;20048;-65
2021/03/15 02:40:46;;;;;;;2.88;1.25;;;7.20;99.90;;;;;;5064582;28;20076;-63
2021/03/15 02:43:22;;;;;;;3.13;1.42;;;7.00;99.90;;;;;;5064845;28;20039;-63
2021/03/15 02:45:52;;;;;;;2.55;1.30;;;6.80;99.90;;;;;;5064510;28;20121;-62
2021/03/15 02:48:19;;;;;;;2.95;1.42;;;6.90;99.90;;;;;;5063723;28;20052;-63
2021/03/15 02:50:48;;;;;;;3.10;0.80;;;7.10;99.90;;;;;;5064130;28;20013;-63
2021/03/15 02:53:18;;;;;;;2.70;1.00;;;7.10;99.90;;;;;;5063855;28;20024;-63
2021/03/15 02:55:49;;;;;;;2.90;1.00;;;7.10;99.90;;;;;;5064408;28;20079;-63
2021/03/15 02:58:20;;;;;;;3.95;1.52;;;7.30;99.90;;;;;;5063781;28;20491;-63
2021/03/15 03:00:48;;;;;;;2.63;1.23;;;7.40;99.90;;;;;;5063639;28;20486;-63
2021/03/15 03:03:20;;;;;;;4.00;1.25;;;7.50;99.90;;;;;;5063402;28;20025;-64
2021/03/15 03:05:49;;;;;;;2.25;1.10;;;7.50;99.90;;;;;;5064205;28;20313;-63
2021/03/15 03:08:18;;;;;;;5.53;1.20;;;7.40;99.90;;;;;;5065260;28;20027;-63
2021/03/15 03:10:48;;;;;;;3.20;1.30;;;7.50;99.90;;;;;;5053742;28;20025;-63
2021/03/15 03:13:18;;;;;;;3.35;1.17;;;7.40;99.90;;;;;;5048543;28;20017;-63
2021/03/15 03:15:45;;;;;;;4.45;1.30;;;7.30;99.90;;;;;;5046819;28;20070;-63
2021/03/15 03:18:20;;;;;;;3.92;1.50;;;7.30;99.90;;;;;;5047029;28;20033;-63
2021/03/15 03:20:53;;;;;;;4.00;1.38;;;6.90;99.90;;;;;;5047687;28;20029;-63
2021/03/15 03:23:20;;;;;;;7.60;2.17;;;7.10;99.90;;;;;;5047908;28;20022;-63
2021/03/15 03:25:48;;;;;;;2.53;1.45;;;6.90;99.90;;;;;;5047067;28;20025;-63
2021/03/15 03:28:17;;;;;;;3.08;1.40;;;7.20;99.90;;;;;;5047285;28;20062;-63
2021/03/15 03:30:45;;;;;;;4.30;1.55;;;7.10;99.90;;;;;;5047683;28;20029;-63
2021/03/15 03:33:13;;;;;;;3.47;1.63;;;7.40;99.90;;;;;;5047046;28;20032;-63
2021/03/15 03:35:41;;;;;;;4.03;1.50;;;7.40;99.90;;;;;;5047889;28;20032;-63
2021/03/15 03:38:06;;;;;;;1.90;1.27;;;7.50;99.90;;;;;;5048226;28;20021;-64
2021/03/15 03:40:33;;;;;;;2.75;1.40;;;7.50;99.90;;;;;;5047315;28;20040;-65
2021/03/15 03:42:59;;;;;;;5.30;1.50;;;7.60;99.90;;;;;;5047504;28;20032;-65
2021/03/15 03:45:25;;;;;;;3.33;1.50;;;7.40;99.90;;;;;;5046709;28;20036;-65
2021/03/15 03:47:53;;;;;;;4.38;1.83;;;7.40;99.90;;;;;;5046464;28;20036;-68
2021/03/15 03:50:24;;;;;;;3.28;1.90;;;7.40;99.90;;;;;;5046964;28;20029;-69
2021/03/15 03:53:31;;;;;;;2.83;1.40;;;7.40;99.90;;;;;;5047198;28;20021;-71
2021/03/15 03:56:06;;;;;;;4.15;1.52;;;7.50;99.90;;;;;;5024567;28;21391;-66
2021/03/15 03:58:34;;;;;;;;;;;7.20;99.90;;;;;;5044143;28;20111;-67
2021/03/15 04:01:04;;;;;;;3.95;1.10;;;6.90;99.90;;;;;;5047164;28;19904;-70
2021/03/15 04:03:32;;;;;;;3.60;1.30;;;6.90;99.90;;;;;;5046757;28;20251;-69
2021/03/15 04:06:03;;;;;;;2.17;0.90;;;6.90;99.90;;;;;;5047421;28;20025;-68
2021/03/15 04:08:53;;;;;;;2.72;0.90;;;6.90;99.90;;;;;;5046435;28;20536;-68
2021/03/15 04:11:20;;;;;;;2.05;0.90;;;7.00;99.90;;;;;;5046504;28;20155;-68
2021/03/15 04:13:53;;;;;;;4.10;1.25;;;6.90;99.90;;;;;;5046975;28;20020;-68
2021/03/15 04:16:29;;;;;;;5.07;1.00;;;6.90;99.90;;;;;;5046333;28;20029;-67
2021/03/15 04:19:00;;;;;;;6.55;1.48;;;6.90;99.90;;;;;;5046941;28;20292;-68
2021/03/15 04:21:31;;;;;;;4.25;1.13;;;6.80;99.90;;;;;;5046234;28;20029;-68
2021/03/15 04:24:01;;;;;;;3.13;1.15;;;6.90;99.90;;;;;;5046774;28;20123;-68
2021/03/15 04:26:30;;;;;;;3.45;1.20;;;6.90;99.90;;;;;;5045184;28;20429;-67
2021/03/15 04:28:59;;;;;;;5.40;1.20;;;6.80;99.90;;;;;;5046265;28;20056;-67
2021/03/15 04:31:30;;;;;;;5.82;1.08;;;6.90;99.90;;;;;;5046039;28;20029;-65
2021/03/15 04:33:58;;;;;;;3.33;0.90;;;6.90;99.90;;;;;;5046091;28;20017;-66
2021/03/15 04:36:27;;;;;;;6.22;1.60;;;6.80;99.90;;;;;;5045595;28;20067;-66
2021/03/15 04:38:57;;;;;;;5.32;1.13;;;6.80;99.90;;;;;;5047782;28;20021;-66
2021/03/15 04:41:25;;;;;;;3.53;0.90;;;6.80;99.90;;;;;;5046954;28;20033;-66
2021/03/15 04:43:53;;;;;;;3.60;1.25;;;6.90;99.90;;;;;;5028594;28;20033;-65
2021/03/15 04:46:22;;;;;;;2.25;0.80;;;7.00;99.90;;;;;;5027413;28;20075;-65
2021/03/15 04:48:48;;;;;;;2.03;0.85;;;7.00;99.90;;;;;;5027230;28;20033;-66
2021/03/15 04:51:19;;;;;;;2.25;0.90;;;6.90;99.90;;;;;;5028023;28;20025;-66
2021/03/15 04:53:47;;;;;;;5.80;1.13;;;6.70;99.90;;;;;;5028558;28;20021;-66
2021/03/15 04:56:18;;;;;;;4.80;0.73;;;6.70;99.90;;;;;;5027886;28;20026;-66
2021/03/15 04:58:50;;;;;;;2.08;1.00;;;6.90;99.90;;;;;;5028230;28;20026;-66
2021/03/15 05:01:17;;;;;;;5.15;1.27;;;6.90;99.90;;;;;;5039347;28;20466;-66
2021/03/15 05:03:48;;;;;;;3.42;1.42;;;7.00;99.90;;;;;;5048193;28;20636;-65
2021/03/15 05:06:17;;;;;;;5.35;1.20;;;7.00;99.90;;;;;;5046247;28;20031;-65
2021/03/15 05:08:52;;;;;;;7.70;2.40;;;7.10;99.90;;;;;;5039353;28;20502;-65
2021/03/15 05:11:22;;;;;;;4.68;1.00;;;7.10;99.90;;;;;;5046685;28;20079;-65
2021/03/15 05:13:50;;;;;;;4.43;1.58;;;6.80;99.90;;;;;;5045669;28;20029;-65
2021/03/15 05:16:18;;;;;;;4.93;1.65;;;6.70;99.90;;;;;;5046325;28;20100;-65
2021/03/15 05:18:44;;;;;;;7.50;2.38;;;6.70;99.90;;;;;;5047221;28;20021;-65
2021/03/15 05:21:11;;;;;;;4.82;1.92;;;6.70;99.90;;;;;;5046799;28;20597;-65
2021/03/15 05:23:41;;;;;;;5.05;1.92;;;6.50;99.90;;;;;;5047010;28;20119;-65
2021/03/15 05:26:11;;;;;;;5.38;1.83;;;6.60;99.90;;;;;;5045832;28;20025;-65
2021/03/15 05:28:41;;;;;;;5.20;1.70;;;6.60;99.90;;;;;;5046885;28;20079;-65
2021/03/15 05:31:09;;;;;;;5.18;1.70;;;6.50;99.90;;;;;;5046062;28;20025;-65
2021/03/15 05:33:39;;;;;;;7.57;2.30;;;6.50;99.90;;;;;;5046629;28;20205;-65
2021/03/15 05:36:17;;;;;;;4.15;1.80;;;6.60;99.90;;;;;;5045191;28;20021;-65
2021/03/15 05:38:44;;;;;;;4.75;2.00;;;6.70;99.90;;;;;;5046627;28;20037;-65
2021/03/15 05:41:15;;;;;;;5.20;1.40;;;6.40;99.90;;;;;;5045019;28;20028;-64
2021/03/15 05:44:12;;;;;;;2.65;1.38;;;6.50;99.90;;;;;;5045219;28;20657;-64
2021/03/15 05:46:59;;;;;;;3.95;1.30;;;6.80;99.90;;;;;;5044723;28;20065;-65
2021/03/15 05:49:37;;;;;;;4.22;1.20;;;6.50;99.90;;;;;;5044788;28;20470;-65
2021/03/15 05:52:15;;;;;;;5.22;1.85;;;6.80;99.90;;;;;;5044774;28;20057;-65
2021/03/15 05:55:20;;;;;;;6.43;2.08;;;6.60;99.90;;;;;;5044847;28;20037;-65
2021/03/15 05:58:01;;;;;;;5.97;2.08;;;6.50;99.90;;;;;;5045672;28;20440;-64
2021/03/15 06:00:35;;;;;;;6.10;1.60;;;6.60;99.90;;;;;;5044457;28;20577;-65
2021/03/15 06:03:34;;;;;;;4.15;1.58;;;6.60;99.90;;;;;;5044968;28;20412;-64
2021/03/15 06:06:05;;;;;;;7.32;1.35;;;6.60;99.90;;;;;;5044743;28;20029;-65
2021/03/15 06:08:40;;;;;;;3.70;1.30;;;6.30;99.90;;;;;;5043693;28;20059;-65
2021/03/15 06:11:16;;;;;;;4.50;1.40;;;6.40;99.90;;;;;;5044321;28;20056;-65
2021/03/15 06:13:45;;;;;;;3.92;1.38;;;6.40;99.90;;;;;;5044607;28;20025;-65
2021/03/15 06:16:15;;;;;;;3.25;1.10;;;6.50;99.90;;;;;;5044412;28;20504;-65
2021/03/15 06:18:45;;;;;;;4.65;1.10;;;6.40;99.90;;;;;;5044688;28;20477;-65
2021/03/15 06:21:14;;;;;;;2.80;1.00;;;6.40;99.90;;;;;;5044271;28;20037;-65
2021/03/15 06:23:44;;;;;;;3.00;1.25;;;6.40;99.90;;;;;;5044097;28;20513;-65
2021/03/15 06:26:12;;;;;;;4.13;1.05;;;6.30;99.90;;;;;;5043381;28;20025;-65
2021/03/15 06:28:40;;;;;;;2.50;0.75;;;6.40;99.90;;;;;;5044714;28;20036;-65
2021/03/15 06:31:09;;;;;;;3.95;1.40;;;6.40;99.90;;;;;;5044192;28;20107;-65
2021/03/15 06:33:37;;;;;;;7.28;1.90;;;6.30;99.90;;;;;;5044173;28;20104;-65
2021/03/15 06:36:04;;;;;;;4.57;1.83;;;6.30;99.90;;;;;;5044377;28;20491;-65
2021/03/15 06:38:36;;;;;;;3.33;1.30;;;6.30;99.90;;;;;;5044166;28;20583;-65
2021/03/15 06:41:05;;;;;;;8.35;1.75;;;6.30;99.90;;;;;;5044168;28;20029;-65
2021/03/15 06:43:34;;;;;;;4.40;1.25;;;6.20;99.90;;;;;;5043216;28;20099;-65
2021/03/15 06:46:00;;;;;;;6.65;1.98;;;6.30;99.90;;;;;;5042866;28;20033;-65
2021/03/15 06:48:28;;;;;;;6.45;1.55;;;6.20;99.90;;;;;;5044004;28;20021;-65
2021/03/15 06:50:57;;;;;;;7.00;1.40;;;6.20;99.90;;;;;;5044084;28;20103;-65
2021/03/15 06:53:37;;;;;;;6.05;1.98;;;6.10;99.90;;;;;;5043804;28;20025;-65
2021/03/15 06:56:11;;;;;;;8.07;1.83;;;6.10;99.90;;;;;;5044222;28;20025;-65
2021/03/15 06:58:48;;;;;;;5.53;2.20;;;6.20;99.90;;;;;;5044083;28;20028;-65
2021/03/15 07:01:19;;;;;;;6.70;1.73;;;6.20;99.90;;;;;;5042952;28;20083;-66
2021/03/15 07:03:48;;;;;;;5.07;1.25;;;5.90;99.90;;;;;;5044646;28;20052;-65
2021/03/15 07:06:18;;;;;;;6.07;1.55;;;6.10;99.90;;;;;;5042133;28;20073;-65
2021/03/15 07:08:45;;;;;;;7.43;1.70;;;6.00;99.90;;;;;;5044592;28;20040;-65
2021/03/15 07:11:23;;;;;;;5.40;1.70;;;6.10;99.90;;;;;;5043426;28;20150;-64
2021/03/15 07:13:51;;;;;;;5.93;2.03;;;6.00;99.90;;;;;;5045476;28;20017;-66
2021/03/15 07:16:25;;;;;;;7.22;1.60;;;6.10;99.90;;;;;;5045163;28;20028;-65
2021/03/15 07:18:51;;;;;;;3.60;1.30;;;6.10;99.90;;;;;;5045748;28;20380;-65
2021/03/15 07:21:32;;;;;;;3.30;1.20;;;6.10;99.90;;;;;;5044505;28;20029;-65
2021/03/15 07:24:00;;;;;;;4.22;1.33;;;6.20;99.90;;;;;;5045542;28;20530;-65
2021/03/15 07:26:35;;;;;;;5.47;1.35;;;6.20;99.90;;;;;;5043853;28;20030;-65
2021/03/15 07:29:15;;;;;;;6.50;2.10;;;6.20;99.90;;;;;;5044808;28;20056;-65
2021/03/15 07:31:50;;;;;;;7.57;1.67;;;6.20;99.90;;;;;;5044624;28;20033;-65
2021/03/15 07:34:22;;;;;;;5.55;1.80;;;6.00;99.90;;;;;;5043549;28;20027;-65
2021/03/15 07:37:02;;;;;;;6.03;1.70;;;6.10;99.90;;;;;;5043825;28;20049;-66
2021/03/15 07:39:31;;;;;;;8.07;2.40;;;6.10;99.90;;;;;;5043528;28;20029;-66
2021/03/15 07:42:01;;;;;;;5.38;1.60;;;6.20;99.90;;;;;;5042709;28;20029;-65
2021/03/15 07:44:33;;;;;;;7.97;2.28;;;6.00;99.90;;;;;;5043153;28;20496;-65
2021/03/15 07:47:04;;;;;;;6.57;2.15;;;6.00;99.90;;;;;;5044058;28;20456;-65
2021/03/15 07:49:32;;;;;;;5.40;1.70;;;6.10;99.90;;;;;;5044041;28;20025;-65
2021/03/15 07:52:04;;;;;;;7.78;2.08;;;6.10;99.90;;;;;;5043629;28;20025;-66
2021/03/15 07:54:42;;;;;;;9.75;1.98;;;6.00;99.90;;;;;;5046170;28;20010;-66
2021/03/15 07:57:17;;;;;;;6.07;1.48;;;5.90;99.90;;;;;;5046951;28;20021;-66
2021/03/15 07:59:46;;;;;;;6.88;1.77;;;6.20;99.90;;;;;;5047091;28;20032;-66
2021/03/15 08:02:17;;;;;;;4.65;1.20;;;6.10;99.90;;;;;;5046820;28;20025;-66
2021/03/15 08:04:45;;;;;;;3.97;1.60;;;6.10;99.90;;;;;;5047126;28;20099;-66
2021/03/15 08:07:13;;;;;;;6.50;1.85;;;6.10;99.90;;;;;;5045390;28;20562;-66
2021/03/15 08:09:41;;;;;;;7.20;1.92;;;6.10;99.90;;;;;;5046593;28;20411;-66
2021/03/15 08:12:09;;;;;;;7.07;1.75;;;6.10;99.90;;;;;;5046822;28;20030;-67
2021/03/15 08:14:39;;;;;;;7.00;2.08;;;6.10;99.90;;;;;;5046635;28;20025;-67
2021/03/15 08:17:12;;;;;;;4.43;1.48;;;6.10;99.90;;;;;;5047082;28;20029;-67
2021/03/15 08:19:40;;;;;;;6.32;2.03;;;6.00;99.90;;;;;;5047049;28;20029;-68
2021/03/15 08:22:11;;;;;;;5.63;1.67;;;6.00;99.90;;;;;;5045731;28;20025;-68
2021/03/15 08:24:39;;;;;;;4.22;1.38;;;6.20;99.90;;;;;;5046818;28;20025;-68
2021/03/15 08:27:06;;;;;;;7.13;1.65;;;6.20;99.90;;;;;;5046733;28;20461;-68
2021/03/15 08:29:40;;;;;;;6.85;2.00;;;6.20;99.90;;;;;;5047001;28;20033;-68
2021/03/15 08:32:08;;;;;;;6.77;1.70;;;6.10;99.90;;;;;;5046745;28;20021;-68
2021/03/15 08:34:39;;;;;;;11.75;3.80;;;6.20;99.90;;;;;;5047039;28;20447;-68
2021/03/15 08:37:06;;;;;;;7.20;2.53;;;6.00;99.90;;;;;;5046684;28;20025;-68
2021/03/15 08:39:33;;;;;;;8.80;1.90;;;6.20;99.90;;;;;;5046847;28;20407;-68
2021/03/15 08:42:15;;;;;;;8.25;2.75;;;6.20;99.90;;;;;;5046561;28;20459;-68
2021/03/15 08:44:45;;;;;;;9.13;2.50;;;6.10;99.90;;;;;;5046531;28;20033;-69
2021/03/15 08:47:36;;;;;;;9.52;2.13;;;6.20;99.90;;;;;;5046104;28;20028;-68
2021/03/15 08:50:34;;;;;;;5.90;1.88;;;6.20;99.90;;;;;;5046869;28;20392;-70
2021/03/15 08:53:02;;;;;;;6.50;2.15;;;6.10;99.90;;;;;;5046784;28;20422;-69
2021/03/15 08:55:45;;;;;;;8.55;2.05;;;6.20;99.90;;;;;;5046238;28;20021;-68
2021/03/15 08:58:41;;;;;;;5.05;2.08;;;6.10;99.90;;;;;;5045780;28;20025;-67
2021/03/15 09:01:17;;;;;;;6.63;2.03;;;6.10;99.90;;;;;;5046011;28;20021;-67
2021/03/15 09:03:56;;;;;;;5.70;1.85;;;6.10;99.90;;;;;;5046030;28;20505;-66
2021/03/15 09:06:33;;;;;;;5.05;1.77;;;6.00;99.90;;;;;;5044838;28;20463;-66
2021/03/15 09:09:15;;;;;;;6.95;2.28;;;6.00;99.90;;;;;;5045888;28;20033;-67
2021/03/15 09:11:43;;;;;;;4.00;1.80;;;6.00;99.90;;;;;;5045394;28;20061;-67
2021/03/15 09:16:47;;;;;;;7.88;1.80;;;6.00;99.90;;;;;;5045479;28;20065;-67
2021/03/15 09:19:33;;;;;;;9.13;1.98;;;6.10;99.90;;;;;;5045411;28;20048;-67
2021/03/15 09:22:21;;;;;;;3.80;1.67;;;6.00;99.90;;;;;;5046190;28;20017;-67
2021/03/15 09:24:55;;;;;;;6.97;1.73;;;6.00;99.90;;;;;;5045776;28;20115;-66
2021/03/15 09:27:29;;;;;;;6.97;1.83;;;6.00;99.90;;;;;;5042283;28;20041;-67
2021/03/15 09:29:55;;;;;;;;;;;5.90;99.90;;;;;;5048054;28;20028;-67
2021/03/15 09:32:32;;;;;;;5.95;1.40;;;6.00;99.90;;;;;;5044647;28;19975;-67
2021/03/15 09:35:01;;;;;;;6.00;1.50;;;6.00;99.90;;;;;;5045521;28;20021;-66
2021/03/15 09:37:28;;;;;;;6.60;1.60;;;6.00;99.90;;;;;;5041813;28;20403;-66
2021/03/15 09:39:56;;;;;;;4.47;1.60;;;6.00;99.90;;;;;;5042331;28;20663;-67
2021/03/15 09:42:25;;;;;;;6.70;1.83;;;6.00;99.90;;;;;;5043906;28;20029;-66
2021/03/15 09:44:54;;;;;;;10.30;2.17;;;6.00;99.90;;;;;;5041024;28;20032;-66
2021/03/15 09:47:28;;;;;;;5.00;1.90;;;6.00;99.90;;;;;;5043590;28;20035;-65
2021/03/15 09:49:54;;;;;;;4.45;1.40;;;6.10;99.90;;;;;;5044330;28;20033;-66
2021/03/15 09:52:23;;;;;;;6.57;1.90;;;6.00;99.90;;;;;;5042347;28;20506;-67
2021/03/15 09:54:59;;;;;;;6.78;2.03;;;6.00;99.90;;;;;;5043049;28;20021;-66
2021/03/15 09:57:28;;;;;;;2.72;1.20;;;6.00;99.90;;;;;;5043502;28;20491;-65
2021/03/15 10:00:06;;;;;;;5.20;1.58;;;6.00;99.90;;;;;;5039315;28;20628;-66
2021/03/15 10:02:35;;;;;;;2.63;1.25;;;6.10;99.90;;;;;;5043431;28;20479;-65
2021/03/15 10:05:04;;;;;;;3.03;1.25;;;6.20;99.90;;;;;;5040452;28;20455;-65
2021/03/15 10:07:33;;;;;;;5.82;1.63;;;6.10;99.90;;;;;;5025263;28;20034;-65
2021/03/15 10:10:12;;;;;;;3.85;1.40;;;6.10;99.90;;;;;;5024875;28;20034;-65
2021/03/15 10:12:41;;;;;;;4.40;1.63;;;6.20;99.90;;;;;;5024812;28;20030;-65
2021/03/15 10:15:12;;;;;;;5.88;1.75;;;6.20;99.90;;;;;;5024894;28;20614;-66
2021/03/15 10:17:41;;;;;;;5.65;1.40;;;6.30;99.90;;;;;;5024735;28;20033;-66
2021/03/15 10:20:12;;;;;;;4.13;1.85;;;6.20;99.90;;;;;;5024864;28;20021;-66
2021/03/15 10:22:41;;;;;;;5.95;1.40;;;6.20;99.90;;;;;;5024607;28;20033;-66
2021/03/15 10:25:10;;;;;;;4.07;1.30;;;6.20;99.90;;;;;;5024900;28;20036;-66
2021/03/15 10:27:40;;;;;;;2.90;1.30;;;6.20;99.90;;;;;;5024342;28;20025;-65
2021/03/15 10:30:13;;;;;;;4.25;1.77;;;6.20;99.90;;;;;;5024276;28;20030;-66
2021/03/15 10:32:43;;;;;;;2.72;1.05;;;6.30;99.90;;;;;;5024281;28;20029;-66
2021/03/15 10:35:12;;;;;;;4.95;1.40;;;6.30;99.90;;;;;;5024413;28;20022;-66
2021/03/15 10:37:44;;;;;;;3.40;1.30;;;6.30;99.90;;;;;;5024615;28;20513;-66
2021/03/15 10:40:11;;;;;;;5.72;1.40;;;6.30;99.90;;;;;;5024176;28;20029;-67
2021/03/15 10:42:41;;;;;;;4.28;1.38;;;6.30;99.90;;;;;;5024214;28;20725;-66
2021/03/15 10:45:11;;;;;;;2.58;1.15;;;6.30;99.90;;;;;;5024218;28;20108;-65
2021/03/15 10:47:40;;;;;;;4.05;1.35;;;6.30;99.90;;;;;;5025801;28;20061;-67
2021/03/15 10:50:27;;;;;;;3.38;1.20;;;6.40;99.90;;;;;;5043781;28;20123;-66
2021/03/15 10:52:55;;;;;;;2.78;1.10;;;6.40;99.90;;;;;;5041523;28;20033;-66
2021/03/15 10:55:37;;;;;;;4.55;1.40;;;6.40;99.90;;;;;;5042539;28;20033;-65
2021/03/15 10:58:08;;;;;;;4.57;1.38;;;6.40;99.90;;;;;;5041602;28;20037;-67
2021/03/15 11:00:38;;;;;;;3.13;1.23;;;6.50;99.90;;;;;;5044521;28;20325;-67
2021/03/15 11:03:07;;;;;;;2.35;1.10;;;6.60;99.90;;;;;;5043334;28;20032;-66
2021/03/15 11:05:35;;;;;;;1.52;1.10;;;6.60;99.90;;;;;;5043628;28;20029;-66
2021/03/15 11:08:03;;;;;;;3.70;1.15;;;6.60;99.90;;;;;;5043087;28;20396;-66
2021/03/15 11:10:35;;;;;;;1.77;1.00;;;6.70;99.90;;;;;;5042152;28;20025;-67
2021/03/15 11:13:19;;;;;;;2.15;1.02;;;6.70;99.90;;;;;;5043615;28;20029;-66
2021/03/15 11:15:46;;;;;;;3.53;1.25;;;6.70;99.90;;;;;;5039888;28;20384;-66
2021/03/15 11:18:17;;;;;;;3.67;1.10;;;6.70;99.90;;;;;;5044385;28;20082;-66
2021/03/15 11:20:56;;;;;;;1.75;0.95;;;6.70;99.90;;;;;;5044151;28;20041;-67
2021/03/15 11:23:46;;;;;;;1.73;0.98;;;6.70;99.90;;;;;;5045471;28;20083;-66
2021/03/15 11:26:16;;;;;;;3.20;0.90;;;6.80;99.90;;;;;;5043605;28;20651;-66
2021/03/15 11:28:55;;;;;;;2.33;1.15;;;6.90;99.90;;;;;;5044398;28;20025;-66
2021/03/15 11:31:26;;;;;;;1.42;0.80;;;6.80;99.90;;;;;;5032967;28;20476;-65
2021/03/15 11:33:59;;;;;;;2.10;1.30;;;6.90;99.90;;;;;;5031956;28;20029;-66
2021/03/15 11:36:27;;;;;;;1.55;1.00;;;6.90;99.90;;;;;;5048648;28;20017;-66
2021/03/15 11:39:01;;;;;;;3.10;1.48;;;6.90;99.90;;;;;;5048404;28;20056;-66
2021/03/15 11:41:32;;;;;;;2.28;1.10;;;6.90;99.90;;;;;;5046968;28;20021;-64
2021/03/15 11:44:00;;;;;;;2.28;1.00;;;6.90;99.90;;;;;;5047532;28;20045;-65
2021/03/15 11:46:27;;;;;;;1.92;0.75;;;7.00;99.90;;;;;;5047202;28;20033;-64
2021/03/15 11:48:55;;;;;;;1.10;0.80;;;7.10;99.90;;;;;;5047470;28;20087;-65
2021/03/15 11:51:23;;;;;;;1.40;0.82;;;7.10;99.90;;;;;;5048557;28;20065;-66
2021/03/15 11:53:51;;;;;;;1.17;0.80;;;7.20;99.90;;;;;;5048540;28;20029;-65
2021/03/15 11:56:19;;;;;;;1.83;1.00;;;7.30;99.90;;;;;;5047482;28;20029;-64
2021/03/15 11:58:46;;;;;;;1.25;0.98;;;7.30;99.90;;;;;;5047879;28;20088;-65
2021/03/15 12:01:12;;;;;;;1.70;1.10;;;7.30;99.90;;;;;;5047386;28;20056;-65
2021/03/15 12:03:38;;;;;;;1.40;0.82;;;7.20;99.90;;;;;;5048236;28;20029;-65
2021/03/15 12:06:05;;;;;;;1.30;1.00;;;7.30;99.90;;;;;;5047613;28;20399;-65
2021/03/15 12:08:34;;;;;;;1.15;0.95;;;7.30;99.90;;;;;;5047612;28;20076;-65
2021/03/15 12:11:00;;;;;;;0.85;0.75;;;7.30;99.90;;;;;;5047780;28;20530;-64
2021/03/15 12:13:28;;;;;;;1.52;0.80;;;7.30;99.90;;;;;;5044592;28;20029;-63
2021/03/15 12:15:56;;;;;;;1.55;1.10;;;7.50;99.90;;;;;;5047091;28;20021;-65
2021/03/15 12:18:24;;;;;;;2.00;1.10;;;7.40;99.90;;;;;;5045220;28;20025;-65
2021/03/15 12:20:52;;;;;;;1.52;0.95;;;7.50;99.90;;;;;;5046989;28;20029;-65
2021/03/15 12:23:18;;;;;;;1.20;1.08;;;7.40;99.90;;;;;;5045664;28;20068;-65
2021/03/15 12:25:47;;;;;;;3.78;2.75;;;7.50;99.90;;;;;;5041314;28;20083;-66
2021/03/15 12:28:15;;;;;;;3.78;2.65;;;7.50;99.90;;;;;;5025828;28;20037;-64
2021/03/15 12:30:41;;;;;;;4.78;2.42;;;7.50;99.90;;;;;;5041874;28;20120;-65
2021/03/15 12:33:10;;;;;;;4.30;2.13;;;7.50;99.90;;;;;;5045220;28;20025;-66
2021/03/15 12:35:39;;;;;;;3.13;1.75;;;7.50;99.90;;;;;;5046136;28;20045;-65
2021/03/15 12:38:08;;;;;;;2.30;1.30;;;7.60;99.90;;;;;;5046136;28;20021;-66
2021/03/15 12:40:36;;;;;;;2.47;1.88;;;7.60;99.90;;;;;;5040464;28;20061;-66
2021/03/15 12:43:03;;;;;;;5.53;2.65;;;7.70;99.90;;;;;;5026229;28;20124;-65
2021/03/15 12:45:31;;;;;;;2.60;2.05;;;7.80;99.90;;;;;;5026509;28;20029;-64
2021/03/15 12:47:59;;;;;;;3.75;2.75;;;7.80;99.90;;;;;;5031035;28;20033;-64
2021/03/15 12:50:26;;;;;;;2.70;1.95;;;7.90;99.90;;;;;;5043850;28;20036;-65
2021/03/15 12:52:54;;;;;;;6.15;3.88;;;8.00;99.90;;;;;;5044954;28;20021;-65
2021/03/15 12:55:23;;;;;;;14.45;8.02;;;8.00;99.90;;;;;;5045421;28;20380;-65
2021/03/15 12:57:50;;;;;;;10.57;6.15;;;8.10;99.90;;;;;;5044343;28;20488;-64
2021/03/15 13:00:19;;;;;;;8.93;4.97;;;8.10;99.90;;;;;;5044205;28;20033;-65
2021/03/15 13:02:48;;;;;;;6.05;3.80;;;8.20;99.90;;;;;;5043596;28;20033;-65
2021/03/15 13:05:16;;;;;;;5.13;3.55;;;8.20;99.90;;;;;;5045324;28;20029;-65
2021/03/15 13:07:44;;;;;;;6.13;3.72;;;8.10;99.90;;;;;;5043557;28;20035;-64
2021/03/15 13:10:13;;;;;;;5.38;3.58;;;8.10;99.90;;;;;;5043721;28;20036;-65
2021/03/15 13:12:41;;;;;;;8.95;4.63;;;8.10;99.90;;;;;;5044821;28;20017;-65
2021/03/15 13:15:11;;;;;;;5.95;4.15;;;8.10;99.90;;;;;;5045373;28;20392;-65
2021/03/15 13:17:39;;;;;;;4.30;3.33;;;8.20;99.90;;;;;;5043782;28;20025;-65
2021/03/15 13:20:06;;;;;;;5.80;3.80;;;8.30;99.90;;;;;;5029160;28;20079;-65